createdAt,value
2023-03-25T00:02:52.287Z,14.10
2023-03-25T00:06:17.571Z,12.70
2023-03-25T00:09:42.362Z,13.80
2023-03-25T00:13:08.314Z,13.20
2023-03-25T00:16:32.598Z,15.50
2023-03-25T00:19:56.845Z,13.30
2023-03-25T00:23:22.354Z,14.50
2023-03-25T00:26:49.784Z,15.20
2023-03-25T00:30:14.281Z,16.90
2023-03-25T00:33:38.216Z,16.50
2023-03-25T00:37:03.671Z,13.70
2023-03-25T00:43:59.567Z,14.10
2023-03-25T00:47:24.610Z,16.90
2023-03-25T00:50:48.992Z,14.90
2023-03-25T00:54:13.175Z,14.40
2023-03-25T00:57:38.096Z,15.50
2023-03-25T01:01:03.165Z,14.70
2023-03-25T01:04:27.671Z,15.20
2023-03-25T01:07:52.034Z,15.10
2023-03-25T01:11:22.591Z,14.80
2023-03-25T01:14:47.342Z,12.80
2023-03-25T01:18:11.977Z,13.50
2023-03-25T01:21:36.922Z,13.70
2023-03-25T01:25:00.742Z,13.30
2023-03-25T01:28:29.718Z,15.10
2023-03-25T01:31:54.355Z,15.80
2023-03-25T01:35:18.497Z,13.90
2023-03-25T01:38:43.365Z,15.80
2023-03-25T01:42:07.341Z,16.70
2023-03-25T01:45:33.896Z,14.90
2023-03-25T01:49:00.007Z,20.80
2023-03-25T01:52:29.912Z,16.20
2023-03-25T01:55:55.080Z,14.90
2023-03-25T01:59:25.295Z,17.30
2023-03-25T02:02:51.067Z,16.90
2023-03-25T02:06:45.933Z,16.20
2023-03-25T02:10:11.951Z,16.00
2023-03-25T02:13:39.765Z,16.50
2023-03-25T02:17:14.030Z,15.40
2023-03-25T02:20:47.405Z,18.20
2023-03-25T02:24:46.129Z,17.50
2023-03-25T02:28:26.301Z,17.80
2023-03-25T02:32:20.765Z,16.60
2023-03-25T02:36:12.150Z,17.20
2023-03-25T02:39:47.547Z,17.50
2023-03-25T02:43:25.852Z,16.60
2023-03-25T02:46:57.014Z,16.90
2023-03-25T02:50:28.817Z,19.20
2023-03-25T02:53:55.435Z,20.60
2023-03-25T02:57:24.022Z,16.00
2023-03-25T03:00:52.262Z,15.60
2023-03-25T03:04:16.284Z,15.60
2023-03-25T03:07:48.358Z,12.20
2023-03-25T03:11:21.643Z,13.80
2023-03-25T03:15:29.182Z,15.80
2023-03-25T03:19:21.240Z,11.80
2023-03-25T03:23:11.043Z,15.90
2023-03-25T03:26:45.318Z,11.70
2023-03-25T03:30:39.305Z,13.00
2023-03-25T03:34:23.574Z,11.00
2023-03-25T03:37:58.213Z,9.60
2023-03-25T03:41:27.199Z,10.40
2023-03-25T03:44:57.504Z,11.60
2023-03-25T03:48:32.038Z,11.70
2023-03-25T03:52:09.761Z,9.20
2023-03-25T03:55:49.808Z,10.10
2023-03-25T03:59:22.265Z,11.10
2023-03-25T04:02:51.993Z,10.50
2023-03-25T04:06:30.898Z,9.90
2023-03-25T04:10:02.876Z,10.90
2023-03-25T04:13:33.054Z,12.50
2023-03-25T04:16:56.910Z,11.10
2023-03-25T04:20:26.346Z,9.40
2023-03-25T04:23:51.795Z,11.30
2023-03-25T04:27:16.036Z,12.20
2023-03-25T04:30:39.828Z,13.10
2023-03-25T04:34:04.623Z,10.10
2023-03-25T04:37:29.853Z,12.00
2023-03-25T04:40:53.959Z,11.60
2023-03-25T04:44:18.621Z,12.80
2023-03-25T04:47:45.004Z,11.10
2023-03-25T04:51:12.245Z,13.30
2023-03-25T04:54:38.576Z,10.90
2023-03-25T04:58:02.412Z,13.20
2023-03-25T05:01:30.866Z,10.20
2023-03-25T05:05:02.216Z,12.40
2023-03-25T05:08:26.089Z,11.90
2023-03-25T05:11:51.553Z,12.40
2023-03-25T05:15:17.276Z,12.80
2023-03-25T05:18:41.124Z,12.00
2023-03-25T05:22:05.223Z,10.90
2023-03-25T05:25:29.215Z,12.50
2023-03-25T05:28:56.800Z,10.00
2023-03-25T05:32:21.739Z,10.50
2023-03-25T05:35:46.307Z,12.60
2023-03-25T05:39:11.060Z,10.50
2023-03-25T05:42:37.889Z,11.60
2023-03-25T05:46:01.744Z,12.40
2023-03-25T05:49:25.579Z,9.30
2023-03-25T05:52:51.972Z,10.50
2023-03-25T05:56:18.029Z,12.30
2023-03-25T05:59:41.837Z,12.80
2023-03-25T06:03:08.734Z,12.90
2023-03-25T06:06:34.527Z,10.60
2023-03-25T06:09:58.518Z,14.00
2023-03-25T06:13:22.584Z,12.10
2023-03-25T06:16:46.977Z,11.60
2023-03-25T06:20:12.676Z,13.20
2023-03-25T06:23:36.544Z,11.70
2023-03-25T06:27:01.379Z,10.40
2023-03-25T06:30:25.466Z,13.30
2023-03-25T06:33:51.272Z,12.10
2023-03-25T06:40:39.281Z,10.90
2023-03-25T06:44:05.158Z,13.80
2023-03-25T06:47:49.365Z,14.30
2023-03-25T06:51:13.415Z,14.10
2023-03-25T06:54:37.394Z,15.60
2023-03-25T06:58:01.263Z,11.90
2023-03-25T07:01:25.381Z,12.60
2023-03-25T07:04:49.449Z,12.30
2023-03-25T07:08:13.415Z,12.30
2023-03-25T07:11:37.400Z,10.80
2023-03-25T07:15:01.537Z,12.40
2023-03-25T07:18:27.230Z,13.40
2023-03-25T07:21:51.151Z,16.60
2023-03-25T07:25:15.047Z,12.80
2023-03-25T07:28:39.227Z,13.90
2023-03-25T07:32:03.097Z,16.10
2023-03-25T07:35:27.111Z,14.60
2023-03-25T07:38:50.992Z,13.70
2023-03-25T07:42:14.746Z,12.70
2023-03-25T07:46:00.258Z,15.60
2023-03-25T07:49:26.777Z,15.90
2023-03-25T07:52:50.668Z,14.20
2023-03-25T07:56:16.925Z,13.90
2023-03-25T07:59:40.931Z,14.80
2023-03-25T08:03:05.923Z,16.20
2023-03-25T08:06:29.802Z,14.40
2023-03-25T08:09:53.563Z,14.60
2023-03-25T08:13:17.387Z,17.50
2023-03-25T08:16:41.411Z,16.40
2023-03-25T08:20:06.644Z,14.50
2023-03-25T08:23:30.476Z,15.30
2023-03-25T08:26:55.106Z,16.00
2023-03-25T08:30:18.922Z,13.00
2023-03-25T08:33:43.124Z,12.50
2023-03-25T08:37:08.483Z,12.10
2023-03-25T08:43:56.906Z,13.40
2023-03-25T08:47:20.930Z,11.30
2023-03-25T08:50:45.131Z,13.60
2023-03-25T08:54:09.211Z,11.70
2023-03-25T08:57:33.054Z,14.10
2023-03-25T09:00:58.418Z,15.10
2023-03-25T09:04:22.499Z,13.30
2023-03-25T09:07:46.852Z,17.70
2023-03-25T09:11:12.128Z,19.20
2023-03-25T09:14:36.083Z,14.70
2023-03-25T09:18:00.028Z,11.10
2023-03-25T09:21:23.970Z,15.30
2023-03-25T09:24:47.756Z,15.40
2023-03-25T09:28:11.679Z,15.90
2023-03-25T09:31:36.169Z,17.60
2023-03-25T09:35:00.138Z,18.70
2023-03-25T09:38:24.040Z,16.30
2023-03-25T09:42:10.729Z,16.60
2023-03-25T09:45:38.957Z,16.40
2023-03-25T09:49:03.954Z,14.60
2023-03-25T09:52:36.185Z,14.40
2023-03-25T09:56:01.588Z,14.70
2023-03-25T09:59:41.212Z,18.10
2023-03-25T10:03:18.507Z,16.10
2023-03-25T10:06:57.929Z,15.30
2023-03-25T10:10:45.613Z,15.50
2023-03-25T10:14:12.515Z,14.30
2023-03-25T10:17:56.921Z,14.20
2023-03-25T10:21:37.139Z,13.70
2023-03-25T10:25:04.674Z,15.40
2023-03-25T10:28:34.853Z,16.80
2023-03-25T10:32:08.835Z,13.70
2023-03-25T10:35:39.772Z,14.70
2023-03-25T10:39:08.016Z,16.60
2023-03-25T10:42:37.113Z,14.00
2023-03-25T10:46:51.780Z,13.60
2023-03-25T10:50:20.386Z,12.30
2023-03-25T10:53:53.200Z,12.30
2023-03-25T10:57:26.092Z,16.20
2023-03-25T11:00:57.606Z,13.20
2023-03-25T11:04:23.262Z,12.90
2023-03-25T11:08:14.950Z,16.50
2023-03-25T11:11:49.158Z,14.60
2023-03-25T11:15:21.939Z,13.00
2023-03-25T11:18:48.364Z,11.20
2023-03-25T11:22:18.293Z,11.70
2023-03-25T11:25:43.713Z,12.20
2023-03-25T11:29:13.836Z,13.50
2023-03-25T11:32:40.497Z,17.10
2023-03-25T11:36:28.958Z,15.40
2023-03-25T11:39:55.923Z,17.30
2023-03-25T11:43:26.381Z,15.10
2023-03-25T11:46:55.634Z,18.60
2023-03-25T11:50:26.797Z,13.00
2023-03-25T11:53:59.285Z,12.40
2023-03-25T11:57:37.378Z,13.60
2023-03-25T12:01:04.048Z,16.20
2023-03-25T12:04:28.001Z,15.90
2023-03-25T12:08:01.461Z,12.20
2023-03-25T12:11:30.822Z,12.30
2023-03-25T12:15:19.935Z,12.00
2023-03-25T12:19:26.012Z,12.40
2023-03-25T12:23:05.521Z,13.80
2023-03-25T12:27:08.742Z,13.50
2023-03-25T12:30:43.625Z,9.70
2023-03-25T12:34:34.793Z,12.50
2023-03-25T12:38:17.417Z,11.00
2023-03-25T12:41:50.609Z,10.70
2023-03-25T12:45:39.883Z,10.70
2023-03-25T12:49:43.455Z,10.00
2023-03-25T12:53:26.190Z,14.20
2023-03-25T12:57:19.347Z,12.70
2023-03-25T13:01:02.162Z,11.60
2023-03-25T13:04:56.025Z,9.60
2023-03-25T13:08:23.209Z,12.10
2023-03-25T13:11:50.573Z,12.10
2023-03-25T13:15:27.567Z,15.00
2023-03-25T13:19:15.500Z,12.40
2023-03-25T13:22:45.043Z,13.20
2023-03-25T13:26:15.356Z,11.70
2023-03-25T13:29:45.534Z,11.50
2023-03-25T13:33:15.776Z,14.80
2023-03-25T13:36:44.368Z,10.00
2023-03-25T13:40:11.779Z,11.90
2023-03-25T13:43:43.566Z,10.50
2023-03-25T13:47:13.791Z,12.10
2023-03-25T13:50:38.140Z,11.50
2023-03-25T13:54:08.156Z,12.10
2023-03-25T13:57:59.227Z,10.20
2023-03-25T14:01:54.783Z,10.70
2023-03-25T14:05:53.577Z,9.50
2023-03-25T14:09:37.309Z,12.50
2023-03-25T14:13:06.953Z,10.40
2023-03-25T14:16:36.931Z,10.60
2023-03-25T14:20:01.715Z,10.60
2023-03-25T14:23:29.199Z,10.30
2023-03-25T14:26:58.036Z,9.20
2023-03-25T14:30:28.314Z,6.40
2023-03-25T14:34:02.191Z,8.10
2023-03-25T14:37:29.439Z,10.30
2023-03-25T14:41:03.483Z,9.00
2023-03-25T14:44:33.205Z,8.00
2023-03-25T14:47:57.675Z,8.20
2023-03-25T14:51:27.897Z,8.90
2023-03-25T14:54:54.186Z,10.00
2023-03-25T14:58:30.008Z,11.90
2023-03-25T15:05:30.552Z,7.10
2023-03-25T15:08:59.606Z,8.70
2023-03-25T15:12:26.535Z,17.60
2023-03-25T15:15:52.085Z,14.70
2023-03-25T15:19:18.083Z,14.50
2023-03-25T15:22:41.927Z,14.00
2023-03-25T15:26:11.311Z,12.30
2023-03-25T15:29:53.849Z,14.50
2023-03-25T15:33:53.533Z,29.30
2023-03-25T15:37:56.000Z,22.30
2023-03-25T15:41:46.996Z,24.30
2023-03-25T15:45:20.195Z,23.70
2023-03-25T15:48:56.461Z,21.30
2023-03-25T15:52:54.029Z,18.10
2023-03-25T15:56:22.957Z,11.80
2023-03-25T16:00:13.445Z,17.40
2023-03-25T16:03:39.190Z,13.80
2023-03-25T16:07:06.958Z,11.10
2023-03-25T16:10:36.643Z,10.60
2023-03-25T16:14:12.484Z,9.20
2023-03-25T16:17:37.557Z,12.50
2023-03-25T16:21:03.230Z,12.10
2023-03-25T16:24:29.945Z,16.50
2023-03-25T16:27:57.284Z,15.20
2023-03-25T16:31:35.226Z,22.40
2023-03-25T16:34:59.211Z,36.70
2023-03-25T16:38:25.608Z,91.40
2023-03-25T16:41:51.768Z,35.20
2023-03-25T16:45:17.010Z,22.30
2023-03-25T16:48:43.516Z,22.90
2023-03-25T16:52:19.755Z,15.90
2023-03-25T16:59:26.245Z,21.90
2023-03-25T17:02:50.813Z,17.30
2023-03-25T17:06:28.256Z,16.30
2023-03-25T17:09:55.353Z,15.10
2023-03-25T17:13:42.960Z,23.20
2023-03-25T17:17:28.755Z,16.30
2023-03-25T17:20:58.895Z,25.80
2023-03-25T17:24:25.246Z,22.20
2023-03-25T17:27:49.271Z,23.70
2023-03-25T17:31:29.747Z,21.90
2023-03-25T17:35:07.612Z,16.60
2023-03-25T17:38:37.400Z,21.40
2023-03-25T17:42:07.302Z,32.00
2023-03-25T17:45:31.171Z,32.20
2023-03-25T17:48:57.772Z,29.00
2023-03-25T17:52:21.501Z,28.90
2023-03-25T17:55:46.736Z,52.00
2023-03-25T17:59:25.887Z,53.50
2023-03-25T18:02:49.869Z,31.60
2023-03-25T18:06:13.908Z,25.00
2023-03-25T18:09:39.262Z,16.60
2023-03-25T18:13:03.308Z,20.70
2023-03-25T18:16:27.265Z,15.60
2023-03-25T18:19:51.240Z,20.40
2023-03-25T18:23:16.004Z,12.00
2023-03-25T18:26:40.703Z,17.20
2023-03-25T18:30:24.141Z,16.80
2023-03-25T18:33:50.127Z,30.10
2023-03-25T18:37:13.925Z,28.20
2023-03-25T18:40:38.125Z,24.30
2023-03-25T18:44:01.915Z,22.40
2023-03-25T18:47:25.998Z,21.70
2023-03-25T18:50:55.673Z,16.60
2023-03-25T18:54:19.596Z,18.00
2023-03-25T18:57:44.085Z,16.40
2023-03-25T19:01:08.609Z,14.80
2023-03-25T19:04:50.612Z,18.30
2023-03-25T19:08:26.114Z,16.70
2023-03-25T19:11:50.827Z,15.50
2023-03-25T19:15:16.831Z,16.60
2023-03-25T19:18:40.727Z,17.20
2023-03-25T19:22:05.127Z,25.10
2023-03-25T19:25:30.027Z,15.80
2023-03-25T19:28:53.916Z,20.00
2023-03-25T19:32:17.803Z,16.40
2023-03-25T19:35:44.312Z,17.80
2023-03-25T19:39:10.794Z,20.80
2023-03-25T19:42:34.902Z,45.00
2023-03-25T19:45:59.519Z,62.50
2023-03-25T19:49:36.800Z,52.50
2023-03-25T19:53:06.275Z,38.00
2023-03-25T19:56:30.178Z,32.40
2023-03-25T19:59:54.123Z,29.70
2023-03-25T20:03:22.343Z,32.60
2023-03-25T20:06:46.993Z,31.50
2023-03-25T20:10:19.893Z,38.60
2023-03-25T20:13:44.404Z,32.20
2023-03-25T20:17:08.279Z,34.50
2023-03-25T20:20:32.255Z,39.10
2023-03-25T20:23:56.327Z,33.60
2023-03-25T20:27:20.525Z,31.20
2023-03-25T20:30:44.375Z,32.00
2023-03-25T20:34:09.803Z,26.70
2023-03-25T20:37:33.689Z,29.40
2023-03-25T20:40:57.672Z,25.20
2023-03-25T20:44:21.967Z,35.50
2023-03-25T20:47:46.435Z,35.00
2023-03-25T20:51:11.749Z,46.50
2023-03-25T20:54:35.762Z,45.00
2023-03-25T20:57:59.588Z,42.00
2023-03-25T21:01:23.661Z,40.10
2023-03-25T21:04:47.803Z,40.60
2023-03-25T21:08:13.474Z,40.90
